createdAt,value
2018-06-14T00:01:39.257Z,99.90
2018-06-14T00:04:07.529Z,99.90
2018-06-14T00:06:35.825Z,99.90
2018-06-14T00:09:06.131Z,99.90
2018-06-14T00:11:34.426Z,99.90
2018-06-14T00:14:02.747Z,99.90
2018-06-14T00:16:31.022Z,99.90
2018-06-14T00:18:59.375Z,99.90
2018-06-14T00:21:27.702Z,99.90
2018-06-14T00:23:55.967Z,99.90
2018-06-14T00:26:24.245Z,99.90
2018-06-14T00:28:52.531Z,99.90
2018-06-14T00:31:20.819Z,99.90
2018-06-14T00:33:49.139Z,99.90
2018-06-14T00:36:17.489Z,99.90
2018-06-14T00:38:45.758Z,99.90
2018-06-14T00:41:14.127Z,99.90
2018-06-14T00:43:42.419Z,99.90
2018-06-14T00:46:10.711Z,99.90
2018-06-14T00:48:39.020Z,99.90
2018-06-14T00:51:07.315Z,99.90
2018-06-14T00:56:03.734Z,99.90
2018-06-14T00:58:32.041Z,99.90
2018-06-14T01:01:00.331Z,99.90
2018-06-14T01:03:28.640Z,99.90
2018-06-14T01:05:56.929Z,99.90
2018-06-14T01:08:25.218Z,99.90
2018-06-14T01:10:53.495Z,99.90
2018-06-14T01:13:21.809Z,99.90
2018-06-14T01:18:18.153Z,99.90
2018-06-14T01:23:14.557Z,99.90
2018-06-14T01:25:42.869Z,99.90
2018-06-14T01:28:11.262Z,99.90
2018-06-14T01:30:39.574Z,99.90
2018-06-14T01:35:35.926Z,99.90
2018-06-14T01:38:15.519Z,99.90
2018-06-14T01:40:43.813Z,99.90
2018-06-14T01:43:12.115Z,99.90
2018-06-14T01:45:40.404Z,99.90
2018-06-14T01:48:08.678Z,99.90
2018-06-14T01:50:36.980Z,99.90
2018-06-14T01:55:34.157Z,99.90
2018-06-14T01:58:03.645Z,99.90
2018-06-14T02:00:31.932Z,99.90
2018-06-14T02:03:00.240Z,99.90
2018-06-14T02:05:28.968Z,99.90
2018-06-14T02:07:57.308Z,99.90
2018-06-14T02:10:26.244Z,99.90
2018-06-14T02:12:54.581Z,99.90
2018-06-14T02:15:22.859Z,99.90
2018-06-14T02:17:51.198Z,99.90
2018-06-14T02:20:19.477Z,99.90
2018-06-14T02:22:47.740Z,99.90
2018-06-14T02:25:16.048Z,99.90
2018-06-14T02:27:44.306Z,99.90
2018-06-14T02:30:12.597Z,99.90
2018-06-14T02:32:40.934Z,99.90
2018-06-14T02:35:09.212Z,99.90
2018-06-14T02:37:40.844Z,99.90
2018-06-14T02:42:38.452Z,99.90
2018-06-14T02:45:06.730Z,99.90
2018-06-14T02:47:35.031Z,99.90
2018-06-14T02:50:03.456Z,99.90
2018-06-14T02:52:31.744Z,99.90
2018-06-14T02:55:00.172Z,99.90
2018-06-14T02:57:28.532Z,99.90
2018-06-14T03:02:25.019Z,99.90
2018-06-14T03:04:53.298Z,99.90
2018-06-14T03:07:26.994Z,99.90
2018-06-14T03:09:55.295Z,99.90
2018-06-14T03:12:23.601Z,99.90
2018-06-14T03:14:51.893Z,99.90
2018-06-14T03:17:21.242Z,99.90
2018-06-14T03:22:19.438Z,99.90
2018-06-14T03:24:47.800Z,99.90
2018-06-14T03:27:16.390Z,99.90
2018-06-14T03:29:44.676Z,99.90
2018-06-14T03:32:13.198Z,99.90
2018-06-14T03:34:41.490Z,99.90
2018-06-14T03:37:10.048Z,99.90
2018-06-14T03:39:38.400Z,99.90
2018-06-14T03:42:08.711Z,99.90
2018-06-14T03:44:37.900Z,99.90
2018-06-14T03:47:07.416Z,99.90
2018-06-14T03:49:36.770Z,99.90
2018-06-14T03:52:05.192Z,99.90
2018-06-14T03:54:33.934Z,99.90
2018-06-14T03:57:02.234Z,99.90
2018-06-14T03:59:30.630Z,99.90
2018-06-14T04:01:58.896Z,99.90
2018-06-14T04:04:27.398Z,99.90
2018-06-14T04:06:55.792Z,99.90
2018-06-14T04:11:52.190Z,99.90
2018-06-14T04:14:20.472Z,99.90
2018-06-14T04:16:48.847Z,99.90
2018-06-14T04:19:17.153Z,99.90
2018-06-14T04:21:45.449Z,99.90
2018-06-14T04:24:13.713Z,99.90
2018-06-14T04:26:42.116Z,99.90
2018-06-14T04:29:10.441Z,99.90
2018-06-14T04:31:38.721Z,99.90
2018-06-14T04:34:06.990Z,99.90
2018-06-14T04:39:03.522Z,99.90
2018-06-14T04:41:31.823Z,99.90
2018-06-14T04:44:00.102Z,99.90
2018-06-14T04:46:28.369Z,99.90
2018-06-14T04:48:56.865Z,99.90
2018-06-14T04:51:25.162Z,99.90
2018-06-14T04:53:53.458Z,99.90
2018-06-14T04:58:49.851Z,99.90
2018-06-14T05:01:18.137Z,99.90
2018-06-14T05:03:46.438Z,99.90
2018-06-14T05:06:14.719Z,99.90
2018-06-14T05:08:42.989Z,99.90
2018-06-14T05:11:11.279Z,99.90
2018-06-14T05:13:39.573Z,99.90
2018-06-14T05:16:07.833Z,99.90
2018-06-14T05:18:36.112Z,99.90
2018-06-14T05:21:04.403Z,99.90
2018-06-14T05:23:32.755Z,99.90
2018-06-14T05:26:00.993Z,99.90
2018-06-14T05:28:29.265Z,99.90
2018-06-14T05:30:57.565Z,99.90
2018-06-14T05:33:25.903Z,99.90
2018-06-14T05:35:54.194Z,99.90
2018-06-14T05:38:22.462Z,99.90
2018-06-14T05:40:50.741Z,99.90
2018-06-14T05:43:19.019Z,99.90
2018-06-14T05:45:47.300Z,99.90
2018-06-14T05:48:15.572Z,99.90
2018-06-14T05:50:43.894Z,99.90
2018-06-14T05:53:12.188Z,99.90
2018-06-14T05:55:40.469Z,99.90
2018-06-14T05:58:08.758Z,99.90
2018-06-14T06:00:37.060Z,99.90
2018-06-14T06:03:05.348Z,99.90
2018-06-14T06:05:33.650Z,99.90
2018-06-14T06:10:29.908Z,99.90
2018-06-14T06:12:58.191Z,99.90
2018-06-14T06:15:26.483Z,99.90
2018-06-14T06:17:54.777Z,99.90
2018-06-14T06:20:23.036Z,99.90
2018-06-14T06:22:51.320Z,99.90
2018-06-14T06:25:19.616Z,99.90
2018-06-14T06:27:47.884Z,99.90
2018-06-14T06:30:16.178Z,99.90
2018-06-14T06:32:44.467Z,99.90
2018-06-14T06:35:12.741Z,99.90
2018-06-14T06:37:41.056Z,99.90
2018-06-14T06:40:09.318Z,99.90
2018-06-14T06:42:37.632Z,99.90
2018-06-14T06:45:06.571Z,99.90
2018-06-14T06:47:34.896Z,99.90
2018-06-14T06:50:03.216Z,99.90
2018-06-14T06:52:31.516Z,99.90
2018-06-14T06:54:59.828Z,99.90
2018-06-14T06:57:28.088Z,99.90
2018-06-14T06:59:56.378Z,99.90
2018-06-14T07:02:24.656Z,99.90
2018-06-14T07:04:52.955Z,99.90
2018-06-14T07:07:21.256Z,99.90
2018-06-14T07:09:49.546Z,99.90
2018-06-14T07:12:17.888Z,99.90
2018-06-14T07:14:46.176Z,99.90
2018-06-14T07:17:14.435Z,99.90
2018-06-14T07:19:42.728Z,99.90
2018-06-14T07:22:11.012Z,99.90
2018-06-14T07:24:39.291Z,99.90
2018-06-14T07:27:07.578Z,99.90
2018-06-14T07:29:35.876Z,99.90
2018-06-14T07:32:04.193Z,99.90
2018-06-14T07:34:32.486Z,99.90
2018-06-14T07:37:00.835Z,99.90
2018-06-14T07:39:29.094Z,99.90
2018-06-14T07:41:57.388Z,99.90
2018-06-14T07:44:25.672Z,99.90
2018-06-14T07:46:53.964Z,99.90
2018-06-14T07:49:22.244Z,99.90
2018-06-14T07:51:50.532Z,99.90
2018-06-14T07:54:18.816Z,99.90
2018-06-14T07:56:47.102Z,99.90
2018-06-14T07:59:15.366Z,99.70
2018-06-14T08:01:43.648Z,96.50
2018-06-14T08:04:11.923Z,96.80
2018-06-14T08:06:40.253Z,98.20
2018-06-14T08:09:09.878Z,95.20
2018-06-14T08:11:38.771Z,95.60
2018-06-14T08:14:07.048Z,94.90
2018-06-14T08:16:35.392Z,93.60
2018-06-14T08:19:03.672Z,94.00
2018-06-14T08:21:31.984Z,92.10
2018-06-14T08:26:28.430Z,90.60
2018-06-14T08:28:56.692Z,89.30
2018-06-14T08:31:24.992Z,89.90
2018-06-14T08:33:53.280Z,85.10
2018-06-14T08:36:21.607Z,79.60
2018-06-14T08:38:49.878Z,76.60
2018-06-14T08:41:18.166Z,76.10
2018-06-14T08:43:46.464Z,69.50
2018-06-14T08:48:42.770Z,64.80
2018-06-14T08:51:11.080Z,65.60
2018-06-14T08:53:39.392Z,66.20
2018-06-14T08:58:35.796Z,63.10
2018-06-14T09:01:04.171Z,64.50
2018-06-14T09:03:32.694Z,64.50
2018-06-14T09:06:01.037Z,66.70
2018-06-14T09:08:29.318Z,61.70
2018-06-14T09:10:57.602Z,62.00
2018-06-14T09:13:25.894Z,59.70
2018-06-14T09:15:54.153Z,58.20
2018-06-14T09:18:22.409Z,60.80
2018-06-14T09:23:18.719Z,61.30
2018-06-14T09:25:47.080Z,63.40
2018-06-14T09:28:15.395Z,68.60
2018-06-14T09:30:43.668Z,69.50
2018-06-14T09:33:12.002Z,74.10
2018-06-14T09:35:40.286Z,74.00
2018-06-14T09:40:37.256Z,74.30
2018-06-14T09:43:06.406Z,73.70
2018-06-14T09:45:34.674Z,69.00
2018-06-14T09:48:03.075Z,70.70
2018-06-14T09:50:31.444Z,64.80
2018-06-14T09:52:59.720Z,67.80
2018-06-14T09:55:28.008Z,65.30
2018-06-14T09:57:56.272Z,62.30
2018-06-14T10:00:24.628Z,63.60
2018-06-14T10:02:52.982Z,61.30
2018-06-14T10:05:21.296Z,61.30
2018-06-14T10:07:49.550Z,59.80
2018-06-14T10:12:45.857Z,58.00
2018-06-14T10:15:14.202Z,59.20
2018-06-14T10:17:42.512Z,59.70
2018-06-14T10:20:10.765Z,62.40
2018-06-14T10:22:39.066Z,63.00
2018-06-14T10:25:07.418Z,62.30
2018-06-14T10:27:35.708Z,64.60
2018-06-14T10:30:04.412Z,65.80
2018-06-14T10:32:32.714Z,65.30
2018-06-14T10:35:00.988Z,61.80
2018-06-14T10:37:29.294Z,66.50
2018-06-14T10:42:25.598Z,66.90
2018-06-14T10:44:53.903Z,66.50
2018-06-14T10:47:22.168Z,63.70
2018-06-14T10:49:50.444Z,66.10
2018-06-14T10:52:18.727Z,65.60
2018-06-14T10:57:15.019Z,64.60
2018-06-14T10:59:43.356Z,60.90
2018-06-14T11:02:11.648Z,61.60
2018-06-14T11:04:39.959Z,56.10
2018-06-14T11:07:08.245Z,58.60
2018-06-14T11:09:36.515Z,58.20
2018-06-14T11:12:04.826Z,58.80
2018-06-14T11:14:33.121Z,56.80
2018-06-14T11:17:01.414Z,59.20
2018-06-14T11:19:29.663Z,58.90
2018-06-14T11:21:57.995Z,60.60
2018-06-14T11:24:26.287Z,62.50
2018-06-14T11:26:54.657Z,64.40
2018-06-14T11:29:22.939Z,65.80
2018-06-14T11:31:51.216Z,66.60
2018-06-14T11:34:19.497Z,65.50
2018-06-14T11:36:47.828Z,66.00
2018-06-14T11:39:16.145Z,65.10
2018-06-14T11:41:44.547Z,63.50
2018-06-14T11:44:12.867Z,61.50
2018-06-14T11:46:41.224Z,64.80
2018-06-14T11:49:09.535Z,63.50
2018-06-14T11:51:37.819Z,60.70
2018-06-14T11:54:06.155Z,59.40
2018-06-14T11:56:34.417Z,61.30
2018-06-14T11:59:02.718Z,58.10
2018-06-14T12:01:31.037Z,56.70
2018-06-14T12:03:59.753Z,59.40
2018-06-14T12:06:28.035Z,61.60
2018-06-14T12:08:56.342Z,63.90
2018-06-14T12:16:20.849Z,65.20
2018-06-14T12:18:49.129Z,62.40
2018-06-14T12:21:17.425Z,63.20
2018-06-14T12:23:45.709Z,61.70
2018-06-14T12:26:14.002Z,61.80
2018-06-14T12:28:42.267Z,60.60
2018-06-14T12:31:10.554Z,61.20
2018-06-14T12:33:38.845Z,61.40
2018-06-14T12:36:07.150Z,60.20
2018-06-14T12:38:35.423Z,61.20
2018-06-14T12:41:03.725Z,63.00
2018-06-14T12:43:32.008Z,61.90
2018-06-14T12:46:00.331Z,62.80
2018-06-14T12:48:28.638Z,63.50
2018-06-14T12:50:56.927Z,62.80
2018-06-14T12:53:25.253Z,63.10
2018-06-14T12:55:53.531Z,62.60
2018-06-14T12:58:21.863Z,63.00
2018-06-14T13:00:50.117Z,57.20
2018-06-14T13:03:18.433Z,60.30
2018-06-14T13:05:46.713Z,61.20
2018-06-14T13:08:15.049Z,59.80
2018-06-14T13:10:43.387Z,60.00
2018-06-14T13:13:11.671Z,60.40
2018-06-14T13:15:39.949Z,60.00
2018-06-14T13:18:08.227Z,59.60
2018-06-14T13:20:36.533Z,56.50
2018-06-14T13:25:32.884Z,57.20
2018-06-14T13:28:01.171Z,57.60
2018-06-14T13:32:57.497Z,57.40
2018-06-14T13:35:25.815Z,57.10
2018-06-14T13:40:22.254Z,58.70
2018-06-14T13:42:50.541Z,57.00
2018-06-14T13:45:18.839Z,57.70
2018-06-14T13:47:47.188Z,58.10
2018-06-14T13:50:15.483Z,56.50
2018-06-14T13:52:43.771Z,57.20
2018-06-14T13:55:12.087Z,58.30
2018-06-14T13:57:40.443Z,58.10
2018-06-14T14:00:08.817Z,55.40
2018-06-14T14:02:37.149Z,56.30
2018-06-14T14:05:05.523Z,56.50
2018-06-14T14:07:33.836Z,55.40
2018-06-14T14:10:02.127Z,54.60
2018-06-14T14:12:30.444Z,56.40
2018-06-14T14:14:58.805Z,55.10
2018-06-14T14:17:27.113Z,56.60
2018-06-14T14:19:55.427Z,56.30
2018-06-14T14:22:23.741Z,56.40
2018-06-14T14:24:52.088Z,54.80
2018-06-14T14:27:20.523Z,55.70
2018-06-14T14:29:48.874Z,55.00
2018-06-14T14:32:17.181Z,54.40
2018-06-14T14:34:45.489Z,54.00
2018-06-14T14:37:13.827Z,55.60
2018-06-14T14:39:42.104Z,56.40
2018-06-14T14:42:10.428Z,57.90
2018-06-14T14:44:39.243Z,58.00
2018-06-14T14:49:35.555Z,55.80
2018-06-14T14:52:03.866Z,55.70
2018-06-14T14:54:32.217Z,56.60
2018-06-14T14:57:00.524Z,56.80
2018-06-14T14:59:28.824Z,57.00
2018-06-14T15:01:57.138Z,57.60
2018-06-14T15:04:25.430Z,58.20
2018-06-14T15:06:53.759Z,56.50
2018-06-14T15:09:22.068Z,56.10
2018-06-14T15:11:50.375Z,55.90
2018-06-14T15:14:18.670Z,56.50
2018-06-14T15:16:46.992Z,57.60
2018-06-14T15:19:15.417Z,57.40
2018-06-14T15:21:43.728Z,57.60
2018-06-14T15:24:12.009Z,57.90
2018-06-14T15:26:40.312Z,59.50
2018-06-14T15:29:08.607Z,60.00
2018-06-14T15:31:36.891Z,58.80
2018-06-14T15:34:05.228Z,58.10
2018-06-14T15:36:33.557Z,58.10
2018-06-14T15:39:01.870Z,57.90
2018-06-14T15:43:58.198Z,59.20
2018-06-14T15:46:26.532Z,58.90
2018-06-14T15:48:54.849Z,60.00
2018-06-14T15:51:23.145Z,60.90
2018-06-14T15:53:51.510Z,60.40
2018-06-14T15:56:31.724Z,59.30
2018-06-14T15:59:00.014Z,59.20
2018-06-14T16:01:28.320Z,59.40
2018-06-14T16:03:56.608Z,59.90
2018-06-14T16:06:24.917Z,58.10
2018-06-14T16:08:53.616Z,56.90
2018-06-14T16:11:21.956Z,57.20
2018-06-14T16:13:50.267Z,57.80
2018-06-14T16:16:18.552Z,58.40
2018-06-14T16:18:46.854Z,56.30
2018-06-14T16:21:15.188Z,55.40
2018-06-14T16:23:43.456Z,55.80
2018-06-14T16:26:11.763Z,56.60
2018-06-14T16:28:40.119Z,56.30
2018-06-14T16:31:08.494Z,57.00
2018-06-14T16:33:36.834Z,57.90
2018-06-14T16:36:05.460Z,57.60
2018-06-14T16:38:33.785Z,57.60
2018-06-14T16:41:02.099Z,58.10
2018-06-14T16:43:30.401Z,59.00
2018-06-14T16:48:26.745Z,62.60
2018-06-14T16:50:55.051Z,63.40
2018-06-14T16:53:23.367Z,63.90
2018-06-14T16:55:52.362Z,65.40
2018-06-14T16:58:20.675Z,66.40
2018-06-14T17:00:49.022Z,66.80
2018-06-14T17:03:17.328Z,66.30
2018-06-14T17:05:45.710Z,67.00
2018-06-14T17:08:14.050Z,68.20
2018-06-14T17:10:42.409Z,69.60
2018-06-14T17:13:10.678Z,70.80
2018-06-14T17:15:39.260Z,70.80
2018-06-14T17:18:07.552Z,71.30
2018-06-14T17:20:35.872Z,69.20
2018-06-14T17:23:04.174Z,71.30
2018-06-14T17:25:32.492Z,71.50
2018-06-14T17:28:00.905Z,72.10
2018-06-14T17:30:29.209Z,72.70
2018-06-14T17:32:57.492Z,72.70
2018-06-14T17:35:25.808Z,72.80
2018-06-14T17:37:54.285Z,72.90
2018-06-14T17:40:22.634Z,74.00
2018-06-14T17:45:19.006Z,75.60
2018-06-14T17:47:47.341Z,76.20
2018-06-14T17:50:15.835Z,76.70
2018-06-14T17:52:44.140Z,78.20
2018-06-14T17:55:12.494Z,80.00
2018-06-14T17:57:40.733Z,79.30
2018-06-14T18:00:09.182Z,79.90
2018-06-14T18:02:37.466Z,80.30
2018-06-14T18:05:06.324Z,81.10
2018-06-14T18:07:34.712Z,83.00
2018-06-14T18:10:02.705Z,84.10
2018-06-14T18:12:31.018Z,85.40
2018-06-14T18:17:27.479Z,86.90
2018-06-14T18:19:55.853Z,87.60
2018-06-14T18:22:24.488Z,89.20
2018-06-14T18:24:52.782Z,90.20
2018-06-14T18:27:21.147Z,90.50
2018-06-14T18:29:49.486Z,90.50
2018-06-14T18:32:17.857Z,91.10
2018-06-14T18:34:46.214Z,91.70
2018-06-14T18:37:14.613Z,92.40
2018-06-14T18:39:42.968Z,92.70
2018-06-14T18:42:11.344Z,93.30
2018-06-14T18:44:39.848Z,94.00
2018-06-14T18:47:08.990Z,94.60
2018-06-14T18:49:37.407Z,95.10
2018-06-14T18:52:05.768Z,95.60
2018-06-14T18:54:34.153Z,96.00
2018-06-14T18:57:02.623Z,96.30
2018-06-14T18:59:31.218Z,96.50
2018-06-14T19:01:59.589Z,96.80
2018-06-14T19:04:27.982Z,97.00
2018-06-14T19:06:56.401Z,97.30
2018-06-14T19:14:21.964Z,97.50
2018-06-14T19:16:50.376Z,98.10
2018-06-14T19:19:18.774Z,97.90
2018-06-14T19:21:47.153Z,98.20
2018-06-14T19:24:15.568Z,98.40
2018-06-14T19:26:43.977Z,98.60
2018-06-14T19:29:12.667Z,98.90
2018-06-14T19:31:42.518Z,98.90
2018-06-14T19:34:11.014Z,99.60
2018-06-14T19:36:40.034Z,99.90
2018-06-14T19:39:09.532Z,99.90
2018-06-14T19:41:38.041Z,99.90
2018-06-14T19:44:07.574Z,99.90
2018-06-14T19:46:35.956Z,99.90
2018-06-14T19:49:04.346Z,99.90
2018-06-14T19:51:32.691Z,99.90
2018-06-14T19:54:01.035Z,99.90
2018-06-14T19:58:57.542Z,99.90
2018-06-14T20:01:25.941Z,99.90
2018-06-14T20:03:54.364Z,99.90
2018-06-14T20:06:22.762Z,99.90
2018-06-14T20:08:51.171Z,99.90
2018-06-14T20:11:19.525Z,99.90
2018-06-14T20:13:47.956Z,99.90
2018-06-14T20:18:44.713Z,99.90
2018-06-14T20:21:13.795Z,99.90
2018-06-14T20:23:42.840Z,99.90
2018-06-14T20:26:11.225Z,99.90
2018-06-14T20:28:39.593Z,99.90
2018-06-14T20:31:07.905Z,99.90
2018-06-14T20:33:36.444Z,99.90
2018-06-14T20:36:04.772Z,99.90
2018-06-14T20:38:33.247Z,99.90
2018-06-14T20:41:01.595Z,99.90
2018-06-14T20:43:30.013Z,99.90
2018-06-14T20:45:58.364Z,99.90
2018-06-14T20:48:26.687Z,99.90
2018-06-14T20:50:55.002Z,99.90
2018-06-14T20:55:51.653Z,99.90
2018-06-14T20:58:20.013Z,99.90
2018-06-14T21:00:48.373Z,99.90
2018-06-14T21:03:16.707Z,99.90
2018-06-14T21:05:45.039Z,99.90
2018-06-14T21:08:13.347Z,99.90
2018-06-14T21:10:41.773Z,99.90
2018-06-14T21:13:10.085Z,99.90
2018-06-14T21:15:38.405Z,99.90
2018-06-14T21:18:06.791Z,99.90
2018-06-14T21:20:35.099Z,99.90
2018-06-14T21:23:03.759Z,99.90
2018-06-14T21:25:32.045Z,99.90
2018-06-14T21:28:00.395Z,99.90
2018-06-14T21:30:28.743Z,99.90
2018-06-14T21:35:25.136Z,99.90
2018-06-14T21:37:53.444Z,99.90
2018-06-14T21:40:21.719Z,99.90
2018-06-14T21:42:50.019Z,99.90
2018-06-14T21:45:18.293Z,99.90
2018-06-14T21:47:46.641Z,99.90
2018-06-14T21:50:14.929Z,99.90
2018-06-14T21:52:43.225Z,99.90
2018-06-14T22:00:07.957Z,99.90
2018-06-14T22:02:40.882Z,99.90
2018-06-14T22:05:09.220Z,99.90
2018-06-14T22:07:37.520Z,99.90
2018-06-14T22:10:05.912Z,99.90
2018-06-14T22:15:02.268Z,99.90
2018-06-14T22:17:30.564Z,99.90
2018-06-14T22:19:59.040Z,99.90
2018-06-14T22:22:27.321Z,99.90
2018-06-14T22:24:55.701Z,99.90
2018-06-14T22:27:23.987Z,99.90
2018-06-14T22:29:52.332Z,99.90
2018-06-14T22:32:20.607Z,99.90
2018-06-14T22:37:22.738Z,99.90
2018-06-14T22:39:51.047Z,99.90
2018-06-14T22:42:19.344Z,99.90
2018-06-14T22:44:47.613Z,99.90
2018-06-14T22:47:15.894Z,99.90
2018-06-14T22:49:44.187Z,99.90
2018-06-14T22:52:56.395Z,99.90
2018-06-14T22:55:25.490Z,99.90
2018-06-14T22:57:53.851Z,99.90
2018-06-14T23:00:39.845Z,99.90
2018-06-14T23:03:08.154Z,99.90
2018-06-14T23:05:36.458Z,99.90
2018-06-14T23:08:04.733Z,99.90
2018-06-14T23:10:44.849Z,99.90
2018-06-14T23:13:14.548Z,99.90
2018-06-14T23:15:42.903Z,99.90
2018-06-14T23:18:11.503Z,99.90
2018-06-14T23:20:39.878Z,99.90
2018-06-14T23:23:08.601Z,99.90
2018-06-14T23:25:37.293Z,99.90
2018-06-14T23:28:05.695Z,99.90
2018-06-14T23:30:33.985Z,99.90
2018-06-14T23:33:02.318Z,99.90
2018-06-14T23:37:58.651Z,99.90
2018-06-14T23:40:26.983Z,99.90
2018-06-14T23:42:55.259Z,99.90
2018-06-14T23:45:23.557Z,99.90
2018-06-14T23:47:51.832Z,99.90
2018-06-14T23:50:20.125Z,99.90
2018-06-14T23:52:48.423Z,99.90
2018-06-14T23:55:16.755Z,99.90
2018-06-14T23:57:45.067Z,99.90
